Time;durP1;ratioP1;P1;durP2;ratioP2;P2;SDS_P1;SDS_P2;PMS_P1;PMS_P2;Temp;Humidity;BMP_temperature;BMP_pressure;BME280_temperature;BME280_humidity;BME280_pressure;Samples;Min_cycle;Max_cycle;Signal;HPM_P1;HPM_P2
2023/04/28 00:02:05;;;;;;;5.60;5.10;;;;;;;;;;5016802;28;20207;-68
2023/04/28 00:04:32;;;;;;;10.10;5.20;;;;;;;;;;5017087;28;20458;-69
2023/04/28 00:06:59;;;;;;;6.27;5.00;;;;;;;;;;5017501;28;20534;-68
2023/04/28 00:09:26;;;;;;;5.40;4.80;;;;;;;;;;5017369;28;20486;-68
2023/04/28 00:11:53;;;;;;;5.17;4.70;;;;;;;;;;5017509;28;20439;-68
2023/04/28 00:14:21;;;;;;;5.43;4.37;;;;;;;;;;5016581;28;20441;-68
2023/04/28 00:16:49;;;;;;;5.63;4.97;;;;;;;;;;5016636;28;20939;-69
2023/04/28 00:19:16;;;;;;;7.53;5.00;;;;;;;;;;5016748;28;20509;-68
2023/04/28 00:21:43;;;;;;;5.53;4.67;;;;;;;;;;5016889;28;20450;-68
2023/04/28 00:24:11;;;;;;;5.20;4.03;;;;;;;;;;5016660;28;20451;-68
2023/04/28 00:26:38;;;;;;;8.33;4.63;;;;;;;;;;5016709;28;20445;-68
2023/04/28 00:29:05;;;;;;;7.23;4.57;;;;;;;;;;5016745;28;20483;-68
2023/04/28 00:31:34;;;;;;;5.40;4.70;;;;;;;;;;5016885;28;20455;-68
2023/04/28 00:34:02;;;;;;;6.40;4.03;;;;;;;;;;5016750;28;20448;-68
2023/04/28 00:36:31;;;;;;;4.73;4.03;;;;;;;;;;5016526;28;20449;-68
2023/04/28 00:38:59;;;;;;;7.10;4.93;;;;;;;;;;5016458;28;20475;-68
2023/04/28 00:41:26;;;;;;;6.43;4.97;;;;;;;;;;5016179;28;20457;-68
2023/04/28 00:43:53;;;;;;;5.63;4.50;;;;;;;;;;5016354;28;20803;-68
2023/04/28 00:46:22;;;;;;;6.93;5.00;;;;;;;;;;5016560;28;20454;-68
2023/04/28 00:48:50;;;;;;;5.68;5.18;;;;;;;;;;5016619;28;20518;-68
2023/04/28 00:51:18;;;;;;;6.00;4.90;;;;;;;;;;5016378;28;20199;-68
2023/04/28 00:53:46;;;;;;;4.95;4.55;;;;;;;;;;5015899;28;20944;-69
2023/04/28 00:56:13;;;;;;;5.17;4.10;;;;;;;;;;5015156;28;20653;-67
2023/04/28 00:58:40;;;;;;;5.33;4.43;;;;;;;;;;5015692;28;20940;-68
2023/04/28 01:01:09;;;;;;;6.80;4.80;;;;;;;;;;5015819;28;20955;-68
2023/04/28 01:03:37;;;;;;;5.57;4.43;;;;;;;;;;5015932;28;20483;-68
2023/04/28 01:06:05;;;;;;;5.97;4.60;;;;;;;;;;5015699;28;20948;-68
2023/04/28 01:08:34;;;;;;;6.80;4.50;;;;;;;;;;5015628;28;20967;-68
2023/04/28 01:11:01;;;;;;;5.23;4.70;;;;;;;;;;5015834;28;20444;-68
2023/04/28 01:13:29;;;;;;;6.47;5.13;;;;;;;;;;5015998;28;20853;-68
2023/04/28 01:15:56;;;;;;;5.20;4.70;;;;;;;;;;5016293;28;20798;-68
2023/04/28 01:18:24;;;;;;;8.38;4.90;;;;;;;;;;5015487;28;20458;-69
2023/04/28 01:20:51;;;;;;;5.10;4.23;;;;;;;;;;5016200;28;20203;-68
2023/04/28 01:23:18;;;;;;;7.13;4.80;;;;;;;;;;5016098;28;20443;-68
2023/04/28 01:25:47;;;;;;;5.83;5.23;;;;;;;;;;5015292;28;20926;-68
2023/04/28 01:28:14;;;;;;;7.60;4.50;;;;;;;;;;5015477;28;20475;-69
2023/04/28 01:30:41;;;;;;;4.28;3.85;;;;;;;;;;5015536;28;20451;-67
2023/04/28 01:33:08;;;;;;;5.70;5.10;;;;;;;;;;5016016;28;20203;-68
2023/04/28 01:35:36;;;;;;;8.40;5.40;;;;;;;;;;5015513;28;20447;-67
2023/04/28 01:38:03;;;;;;;6.27;4.97;;;;;;;;;;5015229;28;20468;-68
2023/04/28 01:40:30;;;;;;;5.17;4.13;;;;;;;;;;5015230;28;20451;-68
2023/04/28 01:42:59;;;;;;;7.30;5.03;;;;;;;;;;5015093;28;20440;-67
2023/04/28 01:45:26;;;;;;;5.43;4.80;;;;;;;;;;5015272;28;20792;-68
2023/04/28 01:47:53;;;;;;;5.77;4.50;;;;;;;;;;5015319;28;20888;-68
2023/04/28 01:50:20;;;;;;;5.73;5.00;;;;;;;;;;5015161;28;20448;-68
2023/04/28 01:52:48;;;;;;;6.00;5.40;;;;;;;;;;5015169;28;20449;-68
2023/04/28 01:55:27;;;;;;;4.83;4.10;;;;;;;;;;5015038;28;20450;-69
2023/04/28 01:57:54;;;;;;;5.30;4.40;;;;;;;;;;5015828;28;20442;-68
2023/04/28 02:00:22;;;;;;;6.17;5.00;;;;;;;;;;5014588;28;20541;-68
2023/04/28 02:02:50;;;;;;;5.17;4.67;;;;;;;;;;5014829;28;20936;-68
2023/04/28 02:05:17;;;;;;;6.37;4.67;;;;;;;;;;5014839;28;20436;-68
2023/04/28 02:07:45;;;;;;;6.80;4.77;;;;;;;;;;5014524;28;20455;-68
2023/04/28 02:10:12;;;;;;;7.80;5.57;;;;;;;;;;5014154;28;20510;-68
2023/04/28 02:12:41;;;;;;;6.90;5.60;;;;;;;;;;5014550;28;20447;-68
2023/04/28 02:15:08;;;;;;;4.70;4.25;;;;;;;;;;5014832;28;20558;-68
2023/04/28 02:17:37;;;;;;;4.95;4.53;;;;;;;;;;5014823;28;20196;-68
2023/04/28 02:20:05;;;;;;;6.15;4.85;;;;;;;;;;5014312;28;20657;-68
2023/04/28 02:22:32;;;;;;;6.50;4.73;;;;;;;;;;5015220;28;20270;-68
2023/04/28 02:24:59;;;;;;;7.67;4.83;;;;;;;;;;5014176;28;20459;-69
2023/04/28 02:27:26;;;;;;;6.63;5.23;;;;;;;;;;5015392;28;20439;-69
2023/04/28 02:29:53;;;;;;;6.83;5.07;;;;;;;;;;5014024;28;20468;-68
2023/04/28 02:32:21;;;;;;;10.80;5.87;;;;;;;;;;5013955;28;20448;-68
2023/04/28 02:34:53;;;;;;;6.60;5.30;;;;;;;;;;5013999;28;20455;-68
2023/04/28 02:37:20;;;;;;;7.73;5.30;;;;;;;;;;5014575;28;20471;-68
2023/04/28 02:39:47;;;;;;;5.83;5.20;;;;;;;;;;5014363;28;20511;-68
2023/04/28 02:42:14;;;;;;;6.73;5.20;;;;;;;;;;5014253;28;20446;-67
2023/04/28 02:44:42;;;;;;;7.23;4.67;;;;;;;;;;5013846;28;20534;-69
2023/04/28 02:47:09;;;;;;;7.67;5.20;;;;;;;;;;5014417;28;20451;-67
2023/04/28 02:49:36;;;;;;;5.63;5.03;;;;;;;;;;5014205;28;20481;-68
2023/04/28 02:52:05;;;;;;;7.13;5.30;;;;;;;;;;5014623;28;20443;-68
2023/04/28 02:54:34;;;;;;;7.30;5.47;;;;;;;;;;5014109;28;20443;-67
2023/04/28 02:57:02;;;;;;;7.40;5.70;;;;;;;;;;5014240;28;20449;-66
2023/04/28 02:59:29;;;;;;;7.90;5.63;;;;;;;;;;5014042;28;20482;-67
2023/04/28 03:01:57;;;;;;;13.80;6.23;;;;;;;;;;5013594;28;20960;-69
2023/04/28 03:04:24;;;;;;;5.63;4.33;;;;;;;;;;5013610;28;20447;-69
2023/04/28 03:06:51;;;;;;;8.43;5.90;;;;;;;;;;5013489;28;20451;-67
2023/04/28 03:09:20;;;;;;;7.77;5.33;;;;;;;;;;5014121;28;20486;-65
2023/04/28 03:11:47;;;;;;;6.23;5.50;;;;;;;;;;5013820;28;20448;-67
2023/04/28 03:14:14;;;;;;;6.10;5.50;;;;;;;;;;5013861;28;20439;-67
2023/04/28 03:16:41;;;;;;;7.00;5.53;;;;;;;;;;5014114;28;20451;-68
2023/04/28 03:19:09;;;;;;;7.87;5.87;;;;;;;;;;5013515;28;20455;-68
2023/04/28 03:21:36;;;;;;;11.60;6.07;;;;;;;;;;5013814;28;20443;-67
2023/04/28 03:24:03;;;;;;;6.33;5.67;;;;;;;;;;5013920;28;20444;-67
2023/04/28 03:26:31;;;;;;;7.83;5.57;;;;;;;;;;5013630;28;20475;-68
2023/04/28 03:28:59;;;;;;;6.17;5.57;;;;;;;;;;5013812;28;20487;-67
2023/04/28 03:31:26;;;;;;;9.87;5.83;;;;;;;;;;5013267;28;20474;-67
2023/04/28 03:33:53;;;;;;;6.23;5.63;;;;;;;;;;5013599;28;20443;-67
2023/04/28 03:36:20;;;;;;;11.00;6.60;;;;;;;;;;5013257;28;20519;-67
2023/04/28 03:38:47;;;;;;;8.70;6.90;;;;;;;;;;5013198;28;20871;-66
2023/04/28 03:41:14;;;;;;;7.27;5.80;;;;;;;;;;5013526;28;20444;-67
2023/04/28 03:43:43;;;;;;;8.77;5.80;;;;;;;;;;5013562;28;20465;-66
2023/04/28 03:46:10;;;;;;;7.47;5.93;;;;;;;;;;5013511;28;20443;-66
2023/04/28 03:48:37;;;;;;;7.10;5.80;;;;;;;;;;5013101;28;20452;-66
2023/04/28 03:51:05;;;;;;;8.63;6.03;;;;;;;;;;5013207;28;20448;-66
2023/04/28 03:53:32;;;;;;;6.80;5.43;;;;;;;;;;5013369;28;20452;-66
2023/04/28 03:55:59;;;;;;;8.63;6.60;;;;;;;;;;5013317;28;20452;-66
2023/04/28 03:58:27;;;;;;;6.87;6.17;;;;;;;;;;5010808;28;20832;-67
2023/04/28 04:00:55;;;;;;;7.73;6.17;;;;;;;;;;5012100;28;20451;-67
2023/04/28 04:03:25;;;;;;;9.03;6.50;;;;;;;;;;5012142;28;20494;-66
2023/04/28 04:05:52;;;;;;;8.97;7.23;;;;;;;;;;5012042;28;20874;-67
2023/04/28 04:08:19;;;;;;;10.23;6.63;;;;;;;;;;5012929;28;20944;-68
2023/04/28 04:10:47;;;;;;;13.60;6.43;;;;;;;;;;5012127;28;20479;-66
2023/04/28 04:13:14;;;;;;;13.73;7.60;;;;;;;;;;5011963;28;20443;-66
2023/04/28 04:15:41;;;;;;;11.33;7.00;;;;;;;;;;5012086;28;20447;-67
2023/04/28 04:18:10;;;;;;;10.40;7.20;;;;;;;;;;5011876;28;20535;-66
2023/04/28 04:20:37;;;;;;;7.87;6.80;;;;;;;;;;5012077;28;20547;-67
2023/04/28 04:23:04;;;;;;;18.27;10.67;;;;;;;;;;5011909;28;20439;-68
2023/04/28 04:25:32;;;;;;;12.97;8.33;;;;;;;;;;5012133;28;20443;-66
2023/04/28 04:27:59;;;;;;;14.70;8.03;;;;;;;;;;5002598;28;20980;-67
2023/04/28 04:30:26;;;;;;;18.20;8.20;;;;;;;;;;4992478;28;20474;-67
2023/04/28 04:32:54;;;;;;;11.97;7.83;;;;;;;;;;4994739;28;20643;-66
2023/04/28 04:35:22;;;;;;;10.70;8.73;;;;;;;;;;4995629;28;20450;-68
2023/04/28 04:37:49;;;;;;;8.30;7.30;;;;;;;;;;4996228;28;20231;-67
2023/04/28 04:40:17;;;;;;;10.33;7.90;;;;;;;;;;4996551;28;20459;-66
2023/04/28 04:42:44;;;;;;;15.17;7.97;;;;;;;;;;4996083;28;20450;-67
2023/04/28 04:45:12;;;;;;;11.07;8.97;;;;;;;;;;4996317;28;20531;-73
2023/04/28 04:47:39;;;;;;;14.63;8.73;;;;;;;;;;4995872;28;21004;-73
2023/04/28 04:50:07;;;;;;;15.30;7.60;;;;;;;;;;4996088;28;20482;-67
2023/04/28 04:52:36;;;;;;;11.60;8.00;;;;;;;;;;4996592;28;20452;-67
2023/04/28 04:55:03;;;;;;;9.83;7.47;;;;;;;;;;4996095;28;20444;-67
2023/04/28 04:57:30;;;;;;;14.30;7.45;;;;;;;;;;4995595;28;20527;-67
2023/04/28 04:59:57;;;;;;;13.53;9.17;;;;;;;;;;4995847;28;20205;-67
2023/04/28 05:02:25;;;;;;;13.53;9.10;;;;;;;;;;4996114;28;20445;-67
2023/04/28 05:04:52;;;;;;;10.83;8.73;;;;;;;;;;4996431;28;20470;-67
2023/04/28 05:07:19;;;;;;;8.90;7.95;;;;;;;;;;4996045;28;20444;-68
2023/04/28 05:09:47;;;;;;;11.20;8.77;;;;;;;;;;4995424;28;20217;-66
2023/04/28 05:12:15;;;;;;;14.13;9.17;;;;;;;;;;4996319;28;20471;-67
2023/04/28 05:14:42;;;;;;;12.13;8.63;;;;;;;;;;4995936;28;20532;-68
2023/04/28 05:17:09;;;;;;;11.27;7.90;;;;;;;;;;4995324;28;20451;-68
2023/04/28 05:19:36;;;;;;;19.70;15.20;;;;;;;;;;4995232;28;20824;-69
2023/04/28 05:22:03;;;;;;;15.67;12.40;;;;;;;;;;4995963;28;20452;-69
2023/04/28 05:24:31;;;;;;;13.60;8.83;;;;;;;;;;4995996;28;20808;-68
2023/04/28 05:27:00;;;;;;;10.57;9.40;;;;;;;;;;4995616;28;20462;-70
2023/04/28 05:29:27;;;;;;;9.87;8.50;;;;;;;;;;4995099;28;20988;-71
2023/04/28 05:31:54;;;;;;;13.83;9.07;;;;;;;;;;4995660;28;20444;-69
2023/04/28 05:34:22;;;;;;;15.27;9.33;;;;;;;;;;4995951;28;20445;-67
2023/04/28 05:36:49;;;;;;;14.77;10.10;;;;;;;;;;4996667;28;20535;-68
2023/04/28 05:39:16;;;;;;;13.60;8.80;;;;;;;;;;4995933;28;20512;-68
2023/04/28 05:41:43;;;;;;;15.23;9.30;;;;;;;;;;4995820;28;20448;-68
2023/04/28 05:44:12;;;;;;;12.70;9.70;;;;;;;;;;4995529;28;20440;-68
2023/04/28 05:46:39;;;;;;;11.80;9.13;;;;;;;;;;4995717;28;20462;-67
2023/04/28 05:49:06;;;;;;;15.37;9.90;;;;;;;;;;4995526;28;20444;-68
2023/04/28 05:51:33;;;;;;;20.43;15.03;;;;;;;;;;4995709;28;20455;-68
2023/04/28 05:54:00;;;;;;;14.73;11.20;;;;;;;;;;4995079;28;20445;-67
2023/04/28 05:56:28;;;;;;;12.77;9.13;;;;;;;;;;4995200;28;20940;-68
2023/04/28 05:58:55;;;;;;;11.87;10.67;;;;;;;;;;4995342;28;20432;-69
2023/04/28 06:01:24;;;;;;;14.13;10.67;;;;;;;;;;4995084;28;20963;-67
2023/04/28 06:03:52;;;;;;;10.80;9.70;;;;;;;;;;4995274;28;20448;-66
2023/04/28 06:06:20;;;;;;;17.43;11.10;;;;;;;;;;4995199;28;20448;-67
2023/04/28 06:08:47;;;;;;;12.63;8.70;;;;;;;;;;4994902;28;20890;-67
2023/04/28 06:11:14;;;;;;;12.33;10.30;;;;;;;;;;4995439;28;20575;-67
2023/04/28 06:13:42;;;;;;;16.40;9.63;;;;;;;;;;4994948;28;20448;-67
2023/04/28 06:16:09;;;;;;;10.93;9.00;;;;;;;;;;4994877;28;20444;-68
2023/04/28 06:18:37;;;;;;;14.07;9.43;;;;;;;;;;4994745;28;20455;-68
2023/04/28 06:21:04;;;;;;;10.27;9.03;;;;;;;;;;4995002;28;20816;-69
2023/04/28 06:23:32;;;;;;;15.63;10.13;;;;;;;;;;4994662;28;20552;-67
2023/04/28 06:25:59;;;;;;;11.57;9.87;;;;;;;;;;4994907;28;20193;-67
2023/04/28 06:28:26;;;;;;;14.97;10.17;;;;;;;;;;4995097;28;20451;-67
2023/04/28 06:30:53;;;;;;;13.43;9.70;;;;;;;;;;4994348;28;20498;-67
2023/04/28 06:33:20;;;;;;;17.90;9.90;;;;;;;;;;4994611;28;20933;-67
2023/04/28 06:35:49;;;;;;;11.83;9.30;;;;;;;;;;4994473;28;20938;-67
2023/04/28 06:38:16;;;;;;;11.87;10.77;;;;;;;;;;4994364;28;20483;-67
2023/04/28 06:40:44;;;;;;;11.27;9.87;;;;;;;;;;4995622;28;20461;-67
2023/04/28 06:43:11;;;;;;;13.27;10.17;;;;;;;;;;4994191;28;20453;-67
2023/04/28 06:45:38;;;;;;;12.30;9.80;;;;;;;;;;4994305;28;20931;-67
2023/04/28 06:48:07;;;;;;;12.13;9.53;;;;;;;;;;4994930;28;20559;-67
2023/04/28 06:50:34;;;;;;;14.50;11.07;;;;;;;;;;4994846;28;20561;-67
2023/04/28 06:53:02;;;;;;;11.63;9.70;;;;;;;;;;4994455;28;20540;-67
2023/04/28 06:55:30;;;;;;;12.13;9.87;;;;;;;;;;4994007;28;20547;-67
2023/04/28 06:57:57;;;;;;;20.40;10.40;;;;;;;;;;4994411;28;20510;-67
2023/04/28 07:00:24;;;;;;;13.63;10.77;;;;;;;;;;4994155;28;20460;-67
2023/04/28 07:02:52;;;;;;;13.80;9.60;;;;;;;;;;4994471;28;20894;-67
2023/04/28 07:05:19;;;;;;;17.03;10.53;;;;;;;;;;4994473;28;20471;-67
2023/04/28 07:07:46;;;;;;;13.57;11.30;;;;;;;;;;4994272;28;20773;-67
2023/04/28 07:10:15;;;;;;;15.13;10.27;;;;;;;;;;4994068;28;20487;-67
2023/04/28 07:12:42;;;;;;;15.33;10.80;;;;;;;;;;4994059;28;20542;-67
2023/04/28 07:15:09;;;;;;;11.10;9.80;;;;;;;;;;4994093;28;20466;-67
2023/04/28 07:17:36;;;;;;;12.17;9.93;;;;;;;;;;4994149;28;20540;-67
2023/04/28 07:20:04;;;;;;;15.57;10.17;;;;;;;;;;4994116;28;20934;-67
2023/04/28 07:22:31;;;;;;;14.90;11.70;;;;;;;;;;4994124;28;20448;-67
2023/04/28 07:24:58;;;;;;;13.20;9.97;;;;;;;;;;4993809;28;20456;-67
2023/04/28 07:27:27;;;;;;;14.03;9.93;;;;;;;;;;4994245;28;20446;-67
2023/04/28 07:29:54;;;;;;;18.53;11.37;;;;;;;;;;4993839;28;20451;-67
2023/04/28 07:32:21;;;;;;;13.27;11.10;;;;;;;;;;4994064;28;20451;-67
2023/04/28 07:34:49;;;;;;;11.67;10.47;;;;;;;;;;4993930;28;20440;-67
2023/04/28 07:37:16;;;;;;;15.00;10.77;;;;;;;;;;4994164;28;20445;-67
2023/04/28 07:39:44;;;;;;;14.63;9.90;;;;;;;;;;4994312;28;20465;-67
2023/04/28 07:42:11;;;;;;;11.03;9.83;;;;;;;;;;4994015;28;20441;-67
2023/04/28 07:44:40;;;;;;;12.43;10.10;;;;;;;;;;4993858;28;20447;-67
2023/04/28 07:47:07;;;;;;;12.33;11.13;;;;;;;;;;4993700;28;20450;-67
2023/04/28 07:49:34;;;;;;;14.00;11.40;;;;;;;;;;4993998;28;20449;-67
2023/04/28 07:52:02;;;;;;;14.80;10.30;;;;;;;;;;4993837;28;20563;-67
2023/04/28 07:54:29;;;;;;;12.50;10.40;;;;;;;;;;4993785;28;20446;-67
2023/04/28 07:56:57;;;;;;;22.13;13.37;;;;;;;;;;4993847;28;20544;-67
2023/04/28 07:59:25;;;;;;;12.30;9.90;;;;;;;;;;4993752;28;20860;-67
2023/04/28 08:01:53;;;;;;;12.73;11.43;;;;;;;;;;4993826;28;20809;-67
2023/04/28 08:04:20;;;;;;;13.27;10.43;;;;;;;;;;4993411;28;20447;-67
2023/04/28 08:06:48;;;;;;;12.80;11.10;;;;;;;;;;4995121;28;20799;-67
2023/04/28 08:09:15;;;;;;;13.87;10.47;;;;;;;;;;4997115;28;20452;-66
2023/04/28 08:11:42;;;;;;;16.83;11.80;;;;;;;;;;4997127;28;20488;-68
2023/04/28 08:14:09;;;;;;;14.07;12.07;;;;;;;;;;4997065;28;20976;-66
2023/04/28 08:16:39;;;;;;;16.60;11.23;;;;;;;;;;4997411;28;20438;-67
2023/04/28 08:19:07;;;;;;;16.37;12.97;;;;;;;;;;4997673;28;20836;-67
2023/04/28 08:21:35;;;;;;;13.97;10.63;;;;;;;;;;4997164;28;20445;-66
2023/04/28 08:24:02;;;;;;;15.87;12.90;;;;;;;;;;4997615;28;20447;-69
2023/04/28 08:26:30;;;;;;;14.03;11.50;;;;;;;;;;4996902;28;20444;-66
2023/04/28 08:28:57;;;;;;;17.60;12.20;;;;;;;;;;4997142;28;20517;-69
2023/04/28 08:31:24;;;;;;;17.90;13.03;;;;;;;;;;4996797;28;20489;-67
2023/04/28 08:33:51;;;;;;;14.00;12.50;;;;;;;;;;4996222;28;20450;-69
2023/04/28 08:36:20;;;;;;;18.20;12.77;;;;;;;;;;4997011;28;20444;-68
2023/04/28 08:38:47;;;;;;;19.10;13.70;;;;;;;;;;4997056;28;20572;-67
2023/04/28 08:41:16;;;;;;;16.90;12.97;;;;;;;;;;4996983;28;20454;-67
2023/04/28 08:43:44;;;;;;;20.50;14.03;;;;;;;;;;4996750;28;20443;-67
2023/04/28 08:46:11;;;;;;;16.70;14.70;;;;;;;;;;4996722;28;20450;-67
2023/04/28 08:48:41;;;;;;;15.83;14.20;;;;;;;;;;4996853;28;20449;-67
2023/04/28 08:51:09;;;;;;;17.10;14.70;;;;;;;;;;4996489;28;20478;-67
2023/04/28 08:53:40;;;;;;;31.20;20.70;;;;;;;;;;4996300;28;20448;-67
2023/04/28 08:56:07;;;;;;;15.00;13.50;;;;;;;;;;4996832;28;20462;-66
2023/04/28 08:58:37;;;;;;;17.50;14.30;;;;;;;;;;4996485;28;20452;-66
2023/04/28 09:01:04;;;;;;;16.37;13.80;;;;;;;;;;4996328;28;20516;-67
2023/04/28 09:03:32;;;;;;;16.70;12.63;;;;;;;;;;4996784;28;20482;-66
2023/04/28 09:05:59;;;;;;;14.77;12.37;;;;;;;;;;4996367;28;20443;-66
2023/04/28 09:08:26;;;;;;;15.90;13.40;;;;;;;;;;4996649;28;20857;-67
2023/04/28 09:11:08;;;;;;;22.00;13.10;;;;;;;;;;4996184;28;20479;-66
2023/04/28 09:13:35;;;;;;;17.80;12.50;;;;;;;;;;4996677;28;20823;-67
2023/04/28 09:16:03;;;;;;;14.17;11.73;;;;;;;;;;4996152;28;20435;-67
2023/04/28 09:18:31;;;;;;;14.10;12.70;;;;;;;;;;4995932;28;20447;-68
2023/04/28 09:21:06;;;;;;;15.27;11.97;;;;;;;;;;4996063;28;20541;-68
2023/04/28 09:23:33;;;;;;;13.60;12.20;;;;;;;;;;4995809;28;20443;-67
2023/04/28 09:26:01;;;;;;;15.23;11.43;;;;;;;;;;4995968;28;20457;-67
2023/04/28 09:28:30;;;;;;;13.53;11.80;;;;;;;;;;4996027;28;20481;-67
2023/04/28 09:30:58;;;;;;;14.97;13.10;;;;;;;;;;4995809;28;20479;-67
2023/04/28 09:33:25;;;;;;;13.93;11.40;;;;;;;;;;4996141;28;20451;-67
2023/04/28 09:35:52;;;;;;;15.80;11.33;;;;;;;;;;4995552;28;20452;-67
2023/04/28 09:38:20;;;;;;;16.80;11.30;;;;;;;;;;4995522;28;20566;-68
2023/04/28 09:40:51;;;;;;;14.17;12.10;;;;;;;;;;4995616;28;20455;-67
2023/04/28 09:43:25;;;;;;;16.13;10.60;;;;;;;;;;4995639;28;20451;-67
2023/04/28 09:45:54;;;;;;;12.10;10.70;;;;;;;;;;4995593;28;20457;-68
2023/04/28 09:48:31;;;;;;;10.60;9.60;;;;;;;;;;4995736;28;20801;-68
2023/04/28 09:50:59;;;;;;;14.50;10.50;;;;;;;;;;4995664;28;20476;-67
2023/04/28 09:53:26;;;;;;;11.83;10.30;;;;;;;;;;4995511;28;20457;-68
2023/04/28 09:55:54;;;;;;;12.80;10.20;;;;;;;;;;4995047;28;20452;-68
2023/04/28 09:58:22;;;;;;;14.63;12.10;;;;;;;;;;4995134;28;20450;-67
2023/04/28 10:00:52;;;;;;;11.30;9.97;;;;;;;;;;4995016;28;20450;-67
2023/04/28 10:03:21;;;;;;;11.53;10.33;;;;;;;;;;4995175;28;20436;-67
2023/04/28 10:05:49;;;;;;;15.33;10.00;;;;;;;;;;4995332;28;20443;-67
2023/04/28 10:08:18;;;;;;;12.83;10.00;;;;;;;;;;4995224;28;20446;-69
2023/04/28 10:10:47;;;;;;;11.60;9.87;;;;;;;;;;4994610;28;20448;-68
2023/04/28 10:13:15;;;;;;;15.17;9.70;;;;;;;;;;4994712;28;20457;-67
2023/04/28 10:15:43;;;;;;;14.50;11.63;;;;;;;;;;4995169;28;20503;-68
2023/04/28 10:18:11;;;;;;;11.67;9.97;;;;;;;;;;4995062;28;20441;-67
2023/04/28 10:20:40;;;;;;;10.73;9.63;;;;;;;;;;4994929;28;20456;-68
2023/04/28 10:23:18;;;;;;;13.57;10.00;;;;;;;;;;4995861;28;20455;-67
2023/04/28 10:25:49;;;;;;;11.37;10.10;;;;;;;;;;4995360;28;20462;-68
2023/04/28 10:28:18;;;;;;;11.80;10.27;;;;;;;;;;4994563;28;20471;-67
2023/04/28 10:31:06;;;;;;;10.77;9.67;;;;;;;;;;4994023;28;20447;-68
2023/04/28 10:33:33;;;;;;;11.50;9.00;;;;;;;;;;4994589;28;20880;-67
2023/04/28 10:36:03;;;;;;;11.33;10.03;;;;;;;;;;4994585;28;20454;-67
2023/04/28 10:38:30;;;;;;;11.70;10.53;;;;;;;;;;4994690;28;20502;-68
2023/04/28 10:41:01;;;;;;;11.37;10.27;;;;;;;;;;4994446;28;20452;-68
2023/04/28 10:43:38;;;;;;;11.57;10.47;;;;;;;;;;4994034;28;20436;-67
2023/04/28 10:46:09;;;;;;;11.60;10.40;;;;;;;;;;4994125;28;20429;-67
2023/04/28 10:48:55;;;;;;;13.10;10.03;;;;;;;;;;4994945;28;20500;-68
2023/04/28 10:51:24;;;;;;;11.47;10.27;;;;;;;;;;4994488;28;20474;-67
2023/04/28 10:54:10;;;;;;;13.80;12.30;;;;;;;;;;4994310;28;20778;-67
2023/04/28 10:56:37;;;;;;;12.30;11.00;;;;;;;;;;4994141;28;20940;-67
2023/04/28 10:59:24;;;;;;;10.77;9.77;;;;;;;;;;4994340;28;20489;-68
2023/04/28 11:01:51;;;;;;;13.47;10.00;;;;;;;;;;4993979;28;20440;-67
2023/04/28 11:04:18;;;;;;;12.40;10.27;;;;;;;;;;4994845;28;20932;-67
2023/04/28 11:06:48;;;;;;;11.57;10.30;;;;;;;;;;4993913;28;20940;-67
2023/04/28 11:09:34;;;;;;;11.63;10.63;;;;;;;;;;4994732;28;20467;-67
2023/04/28 11:12:05;;;;;;;11.90;9.97;;;;;;;;;;4993659;28;20583;-67
2023/04/28 11:14:33;;;;;;;14.67;12.47;;;;;;;;;;4994115;28;20448;-67
2023/04/28 11:17:01;;;;;;;12.63;11.43;;;;;;;;;;4994102;28;20477;-67
2023/04/28 11:19:30;;;;;;;13.63;12.23;;;;;;;;;;4993767;28;20458;-67
2023/04/28 11:21:59;;;;;;;12.20;11.20;;;;;;;;;;4993893;28;20466;-67
2023/04/28 11:24:27;;;;;;;11.73;10.73;;;;;;;;;;4994142;28;20497;-67
2023/04/28 11:26:55;;;;;;;15.50;12.83;;;;;;;;;;4994011;28;20446;-67
2023/04/28 11:29:32;;;;;;;13.63;12.27;;;;;;;;;;4993707;28;20455;-67
2023/04/28 11:31:59;;;;;;;14.63;13.13;;;;;;;;;;4994256;28;20468;-67
2023/04/28 11:34:26;;;;;;;15.13;13.00;;;;;;;;;;4993945;28;20451;-67
2023/04/28 11:36:53;;;;;;;13.80;12.50;;;;;;;;;;4993918;28;20451;-68
2023/04/28 11:39:28;;;;;;;17.33;13.50;;;;;;;;;;4994193;28;20490;-67
2023/04/28 11:41:56;;;;;;;15.00;13.60;;;;;;;;;;4997259;28;20462;-67
2023/04/28 11:44:23;;;;;;;15.40;13.90;;;;;;;;;;4997934;28;20457;-67
2023/04/28 11:46:54;;;;;;;15.23;13.83;;;;;;;;;;4997530;28;20461;-67
2023/04/28 11:49:23;;;;;;;14.10;12.77;;;;;;;;;;4998023;28;20467;-67
2023/04/28 11:51:50;;;;;;;14.67;13.20;;;;;;;;;;4997356;28;20489;-68
2023/04/28 11:54:21;;;;;;;14.57;13.37;;;;;;;;;;4998409;28;20453;-67
2023/04/28 11:56:50;;;;;;;15.57;13.17;;;;;;;;;;4997928;28;20435;-67
2023/04/28 11:59:19;;;;;;;14.37;12.97;;;;;;;;;;4997597;28;20437;-67
2023/04/28 12:01:47;;;;;;;14.40;13.10;;;;;;;;;;4997998;28;20489;-67
2023/04/28 12:04:15;;;;;;;14.90;13.20;;;;;;;;;;4997550;28;20516;-67
2023/04/28 12:06:48;;;;;;;16.10;14.50;;;;;;;;;;4997588;28;20447;-67
2023/04/28 12:09:20;;;;;;;15.43;13.40;;;;;;;;;;4997049;28;20451;-67
2023/04/28 12:11:56;;;;;;;15.63;14.00;;;;;;;;;;4997186;28;21006;-67
2023/04/28 12:14:24;;;;;;;15.70;14.20;;;;;;;;;;4997034;28;20461;-67
2023/04/28 12:16:51;;;;;;;16.07;14.40;;;;;;;;;;4997325;28;20451;-67
2023/04/28 12:19:20;;;;;;;15.10;13.77;;;;;;;;;;4997214;28;20476;-67
2023/04/28 12:21:59;;;;;;;14.80;13.40;;;;;;;;;;4996937;28;20581;-67
2023/04/28 12:24:27;;;;;;;18.27;15.03;;;;;;;;;;4997190;28;20427;-68
2023/04/28 12:26:55;;;;;;;16.50;14.97;;;;;;;;;;4997158;28;20448;-67
2023/04/28 12:29:39;;;;;;;16.87;15.30;;;;;;;;;;4997055;28;20459;-67
2023/04/28 12:32:11;;;;;;;19.53;15.40;;;;;;;;;;4996872;28;20521;-68
2023/04/28 12:34:39;;;;;;;17.43;15.87;;;;;;;;;;4997299;28;20447;-70
2023/04/28 12:37:07;;;;;;;17.30;15.60;;;;;;;;;;4996506;28;20448;-68
2023/04/28 12:39:34;;;;;;;18.00;16.30;;;;;;;;;;4997040;28;20444;-68
2023/04/28 12:42:03;;;;;;;17.90;16.07;;;;;;;;;;4997389;28;20501;-67
2023/04/28 12:44:34;;;;;;;15.93;14.30;;;;;;;;;;4996410;28;20872;-68
2023/04/28 12:47:02;;;;;;;16.20;14.80;;;;;;;;;;4996946;28;20793;-67
2023/04/28 12:49:29;;;;;;;18.17;16.37;;;;;;;;;;4996787;28;20450;-67
2023/04/28 12:51:56;;;;;;;19.40;16.80;;;;;;;;;;5000505;28;20477;-68
2023/04/28 12:54:23;;;;;;;19.70;16.70;;;;;;;;;;5013942;28;20455;-68
2023/04/28 12:56:50;;;;;;;19.50;17.50;;;;;;;;;;5014831;28;20447;-68
2023/04/28 12:59:19;;;;;;;17.80;16.03;;;;;;;;;;5014742;28;20464;-68
2023/04/28 13:01:47;;;;;;;18.93;17.03;;;;;;;;;;5015040;28;20442;-68
2023/04/28 13:04:14;;;;;;;16.60;15.00;;;;;;;;;;5015198;28;20456;-68
2023/04/28 13:06:43;;;;;;;18.20;16.27;;;;;;;;;;5014916;28;20457;-68
2023/04/28 13:09:10;;;;;;;18.47;16.63;;;;;;;;;;5015067;28;20454;-67
2023/04/28 13:11:38;;;;;;;17.73;15.10;;;;;;;;;;5015096;28;20500;-67
2023/04/28 13:14:05;;;;;;;17.50;15.70;;;;;;;;;;5015009;28;20461;-67
2023/04/28 13:16:33;;;;;;;15.20;13.20;;;;;;;;;;5014954;28;20431;-67
2023/04/28 13:19:01;;;;;;;15.50;14.00;;;;;;;;;;5014371;28;20447;-68
2023/04/28 13:21:28;;;;;;;15.20;13.80;;;;;;;;;;5014906;28;20447;-68
2023/04/28 13:23:56;;;;;;;16.80;15.30;;;;;;;;;;5014527;28;20450;-68
2023/04/28 13:26:23;;;;;;;14.60;13.30;;;;;;;;;;5014752;28;20472;-68
2023/04/28 13:28:51;;;;;;;16.50;15.07;;;;;;;;;;5014818;28;20446;-68
2023/04/28 13:31:18;;;;;;;15.40;13.90;;;;;;;;;;5014567;28;20451;-67
2023/04/28 13:33:47;;;;;;;16.73;15.13;;;;;;;;;;5014530;28;20544;-67
2023/04/28 13:36:14;;;;;;;15.53;14.00;;;;;;;;;;5014674;28;20454;-67
2023/04/28 13:38:44;;;;;;;17.10;15.30;;;;;;;;;;5014777;28;20492;-67
2023/04/28 13:41:12;;;;;;;16.70;15.20;;;;;;;;;;5015174;28;20518;-67
2023/04/28 13:43:39;;;;;;;17.73;16.00;;;;;;;;;;5014441;28;20452;-68
2023/04/28 13:46:07;;;;;;;19.10;17.20;;;;;;;;;;5014455;28;21041;-67
2023/04/28 13:48:35;;;;;;;18.33;16.63;;;;;;;;;;5014734;28;20465;-67
2023/04/28 13:51:04;;;;;;;20.50;18.60;;;;;;;;;;5014527;28;20484;-68
2023/04/28 13:53:31;;;;;;;19.20;17.40;;;;;;;;;;5014277;28;20485;-68
2023/04/28 13:55:58;;;;;;;18.80;16.87;;;;;;;;;;5014471;28;20442;-68
2023/04/28 13:58:25;;;;;;;21.17;18.87;;;;;;;;;;5014561;28;20454;-67
2023/04/28 14:00:53;;;;;;;21.10;18.77;;;;;;;;;;5014650;28;20473;-67
2023/04/28 14:03:20;;;;;;;23.40;21.10;;;;;;;;;;5014511;28;20456;-67
2023/04/28 14:05:48;;;;;;;22.87;20.50;;;;;;;;;;5014215;28;20460;-68
2023/04/28 14:08:16;;;;;;;24.37;21.77;;;;;;;;;;5014467;28;20465;-67
2023/04/28 14:10:44;;;;;;;25.00;22.60;;;;;;;;;;5013819;28;20439;-68
2023/04/28 14:13:11;;;;;;;24.63;22.10;;;;;;;;;;5013825;28;20983;-68
2023/04/28 14:15:39;;;;;;;25.97;22.40;;;;;;;;;;5014048;28;20889;-68
2023/04/28 14:18:06;;;;;;;25.63;22.93;;;;;;;;;;5014045;28;20493;-68
2023/04/28 14:20:33;;;;;;;25.37;22.77;;;;;;;;;;5014121;28;20450;-67
2023/04/28 14:23:00;;;;;;;23.70;21.40;;;;;;;;;;5014032;28;20923;-68
2023/04/28 14:25:29;;;;;;;23.93;21.47;;;;;;;;;;5014419;28;20469;-67
2023/04/28 14:27:56;;;;;;;27.23;24.40;;;;;;;;;;5014036;28;20442;-67
2023/04/28 14:30:24;;;;;;;24.03;21.70;;;;;;;;;;5014047;28;20450;-68
2023/04/28 14:32:51;;;;;;;22.97;20.67;;;;;;;;;;5013948;28;20484;-67